Time;durP1;ratioP1;P1;durP2;ratioP2;P2;SDS_P1;SDS_P2;PMS_P1;PMS_P2;Temp;Humidity;BMP_temperature;BMP_pressure;BME280_temperature;BME280_humidity;BME280_pressure;Samples;Min_cycle;Max_cycle;Signal;HPM_P1;HPM_P2
2023/09/07 00:00:05;;;;;;;7.00;5.15;;;15.70;99.90;;;;;;5031961;28;20217;-78
2023/09/07 00:02:32;;;;;;;7.68;5.60;;;15.50;99.90;;;;;;5033396;28;20589;-78
2023/09/07 00:04:59;;;;;;;8.48;5.20;;;15.30;99.90;;;;;;5033448;28;20227;-79
2023/09/07 00:07:26;;;;;;;7.78;5.65;;;15.20;99.90;;;;;;5030258;28;20679;-78
2023/09/07 00:09:53;;;;;;;7.55;5.55;;;15.10;99.90;;;;;;5022427;28;20682;-79
2023/09/07 00:12:21;;;;;;;7.32;5.80;;;15.00;99.90;;;;;;5031546;28;20242;-78
2023/09/07 00:14:47;;;;;;;7.53;5.60;;;14.90;99.90;;;;;;5032758;28;20303;-78
2023/09/07 00:17:14;;;;;;;8.18;5.60;;;15.00;99.90;;;;;;5026098;28;20208;-78
2023/09/07 00:19:41;;;;;;;6.65;5.60;;;15.10;99.90;;;;;;5027728;28;20227;-78
2023/09/07 00:22:09;;;;;;;10.10;5.90;;;14.80;99.90;;;;;;5034321;28;20204;-79
2023/09/07 00:24:36;;;;;;;8.80;6.05;;;15.00;99.90;;;;;;5034500;28;20426;-79
2023/09/07 00:27:05;;;;;;;7.63;5.47;;;14.80;99.90;;;;;;5033790;28;20200;-78
2023/09/07 00:29:33;;;;;;;7.18;5.45;;;14.70;99.90;;;;;;5032394;28;20907;-78
2023/09/07 00:32:00;;;;;;;7.43;5.28;;;14.80;99.90;;;;;;5034660;28;20199;-78
2023/09/07 00:34:27;;;;;;;15.63;5.78;;;14.90;99.90;;;;;;5033931;28;20219;-78
2023/09/07 00:36:54;;;;;;;6.25;5.20;;;14.90;99.90;;;;;;5026259;28;20200;-78
2023/09/07 00:39:20;;;;;;;8.23;5.45;;;15.00;99.90;;;;;;5034571;28;20224;-78
2023/09/07 00:41:47;;;;;;;6.85;5.20;;;15.00;99.90;;;;;;5034147;28;20204;-78
2023/09/07 00:44:14;;;;;;;8.82;5.40;;;15.00;99.90;;;;;;5021605;28;20231;-79
2023/09/07 00:46:44;;;;;;;9.07;6.07;;;14.70;99.90;;;;;;5025631;28;20199;-79
2023/09/07 00:49:12;;;;;;;6.72;5.38;;;14.60;99.90;;;;;;5025487;28;20866;-79
2023/09/07 00:51:39;;;;;;;8.68;5.32;;;14.70;99.90;;;;;;5034519;28;20208;-78
2023/09/07 00:54:06;;;;;;;8.77;5.60;;;14.90;99.90;;;;;;5026064;28;20229;-78
2023/09/07 00:56:33;;;;;;;7.25;5.20;;;14.90;99.90;;;;;;5029277;28;20208;-79
2023/09/07 00:59:00;;;;;;;7.38;5.93;;;14.90;99.90;;;;;;5034266;28;20219;-79
2023/09/07 01:01:27;;;;;;;8.43;5.82;;;14.60;99.90;;;;;;5029390;28;20639;-79
2023/09/07 01:03:57;;;;;;;6.60;5.35;;;14.60;99.90;;;;;;5033474;28;20250;-78
2023/09/07 01:06:29;;;;;;;7.20;5.30;;;14.40;99.90;;;;;;5032657;28;20211;-78
2023/09/07 01:08:58;;;;;;;8.43;5.55;;;14.30;99.90;;;;;;5033791;28;20207;-77
2023/09/07 01:11:26;;;;;;;7.03;5.70;;;14.30;99.90;;;;;;5018518;28;20294;-79
2023/09/07 01:13:53;;;;;;;6.72;5.32;;;14.10;99.90;;;;;;5024490;28;20204;-78
2023/09/07 01:16:21;;;;;;;10.20;6.15;;;14.00;99.90;;;;;;5032194;28;20207;-79
2023/09/07 01:18:48;;;;;;;9.65;6.18;;;14.10;99.90;;;;;;5028999;28;20208;-78
2023/09/07 01:21:18;;;;;;;8.10;5.50;;;14.10;99.90;;;;;;5030542;28;20671;-78
2023/09/07 01:23:48;;;;;;;8.13;5.68;;;14.00;99.90;;;;;;5034535;28;20226;-78
2023/09/07 01:26:16;;;;;;;7.80;5.40;;;14.20;99.90;;;;;;5033125;28;20614;-78
2023/09/07 01:28:42;;;;;;;9.27;5.75;;;14.30;99.90;;;;;;5032371;28;20200;-78
2023/09/07 01:31:09;;;;;;;10.27;5.70;;;14.30;99.90;;;;;;5037130;28;20196;-79
2023/09/07 01:33:37;;;;;;;9.43;6.32;;;14.20;99.90;;;;;;5029801;28;20634;-79
2023/09/07 01:36:04;;;;;;;9.85;6.10;;;14.20;99.90;;;;;;5029638;28;20713;-78
2023/09/07 01:38:31;;;;;;;9.57;5.90;;;14.30;99.90;;;;;;5036893;28;20203;-79
2023/09/07 01:40:59;;;;;;;7.72;5.90;;;14.30;99.90;;;;;;5037026;28;20220;-78
2023/09/07 01:43:26;;;;;;;8.40;6.30;;;14.20;99.90;;;;;;5036041;28;20204;-78
2023/09/07 01:45:53;;;;;;;8.98;6.38;;;13.80;99.90;;;;;;5036075;28;20224;-79
2023/09/07 01:48:19;;;;;;;9.77;6.00;;;13.80;99.90;;;;;;5036182;28;20212;-78
2023/09/07 01:50:46;;;;;;;9.13;6.10;;;13.80;99.90;;;;;;5036063;28;20648;-77
2023/09/07 01:53:12;;;;;;;8.55;6.05;;;13.80;99.90;;;;;;5035576;28;20212;-78
2023/09/07 01:55:39;;;;;;;9.40;5.80;;;14.00;99.90;;;;;;5023631;28;20219;-78
2023/09/07 01:58:07;;;;;;;9.50;5.82;;;14.00;99.90;;;;;;5037640;28;20574;-78
2023/09/07 02:03:18;;;;;;;7.43;6.05;;;13.70;99.90;;;;;;5067348;23;20274;-85
2023/09/07 02:05:50;;;;;;;11.07;6.32;;;13.60;99.90;;;;;;5017883;28;20196;-86
2023/09/07 02:08:19;;;;;;;7.22;5.68;;;13.40;99.90;;;;;;5023126;28;20216;-84
2023/09/07 02:10:46;;;;;;;7.35;6.15;;;13.20;99.90;;;;;;5019664;28;20223;-85
2023/09/07 02:13:14;;;;;;;9.65;6.47;;;13.30;99.90;;;;;;5015197;28;20205;-85
2023/09/07 02:15:44;;;;;;;9.80;6.68;;;13.50;99.90;;;;;;5015311;28;20264;-84
2023/09/07 02:18:11;;;;;;;9.38;6.53;;;13.50;99.90;;;;;;5026528;23;20701;-77
2023/09/07 02:20:38;;;;;;;9.25;6.15;;;13.50;99.90;;;;;;5038369;28;20211;-79
2023/09/07 02:23:05;;;;;;;7.63;6.72;;;13.50;99.90;;;;;;5036238;28;20223;-78
2023/09/07 02:25:31;;;;;;;8.32;6.13;;;13.60;99.90;;;;;;5029747;28;20216;-78
2023/09/07 02:27:58;;;;;;;9.25;6.47;;;13.60;99.90;;;;;;5022145;28;20218;-79
2023/09/07 02:30:26;;;;;;;7.97;6.55;;;13.60;99.90;;;;;;5015517;28;20200;-78
2023/09/07 02:32:54;;;;;;;9.32;6.65;;;13.50;99.90;;;;;;5016736;28;20581;-79
2023/09/07 02:35:20;;;;;;;9.75;7.03;;;13.60;99.90;;;;;;5016739;28;20714;-79
2023/09/07 02:37:47;;;;;;;9.70;7.43;;;13.70;99.90;;;;;;5016432;28;20401;-79
2023/09/07 02:40:15;;;;;;;8.25;6.50;;;13.70;99.90;;;;;;5015803;28;20220;-79
2023/09/07 02:42:42;;;;;;;10.32;6.68;;;13.70;99.90;;;;;;5015267;28;20204;-79
2023/09/07 02:45:11;;;;;;;9.38;7.15;;;13.70;99.90;;;;;;5015716;28;20311;-79
2023/09/07 02:47:40;;;;;;;9.13;6.63;;;13.70;99.90;;;;;;5021138;28;20200;-78
2023/09/07 02:50:07;;;;;;;7.65;6.65;;;13.60;99.90;;;;;;5016156;28;20660;-79
2023/09/07 02:52:34;;;;;;;8.45;6.95;;;13.50;99.90;;;;;;5008082;28;20208;-79
2023/09/07 02:55:01;;;;;;;10.73;7.03;;;13.60;99.90;;;;;;5016341;28;20228;-79
2023/09/07 02:57:28;;;;;;;8.88;6.80;;;13.60;99.90;;;;;;5015863;28;20205;-79
2023/09/07 02:59:55;;;;;;;8.75;6.68;;;13.50;99.90;;;;;;5010672;28;20311;-78
2023/09/07 03:02:22;;;;;;;12.38;7.20;;;13.50;99.90;;;;;;5015744;28;20230;-78
2023/09/07 03:04:54;;;;;;;9.57;7.07;;;13.50;99.90;;;;;;5014991;28;20231;-79
2023/09/07 03:07:21;;;;;;;8.55;6.30;;;13.60;99.90;;;;;;5015930;28;20204;-79
2023/09/07 03:09:48;;;;;;;8.07;6.63;;;13.60;99.90;;;;;;5015638;28;20713;-79
2023/09/07 03:12:15;;;;;;;8.88;7.03;;;13.70;99.90;;;;;;5014668;28;20274;-78
2023/09/07 03:14:44;;;;;;;9.82;7.38;;;13.70;99.90;;;;;;5015531;28;20609;-79
2023/09/07 03:17:11;;;;;;;8.55;7.20;;;13.60;99.90;;;;;;5015466;28;20200;-78
2023/09/07 03:19:38;;;;;;;10.10;7.13;;;13.50;99.90;;;;;;5017142;28;20211;-79
2023/09/07 03:22:06;;;;;;;9.95;7.00;;;13.60;99.90;;;;;;5015236;28;20205;-79
2023/09/07 03:24:33;;;;;;;10.88;7.00;;;13.60;99.90;;;;;;5015431;28;20216;-79
2023/09/07 03:27:00;;;;;;;8.32;7.28;;;13.50;99.90;;;;;;5015723;28;20208;-80
2023/09/07 03:29:27;;;;;;;10.98;7.43;;;13.40;99.90;;;;;;5015208;28;20200;-79
2023/09/07 03:31:53;;;;;;;8.70;6.20;;;13.40;99.90;;;;;;5015067;28;20204;-78
2023/09/07 03:34:20;;;;;;;10.02;6.78;;;13.30;99.90;;;;;;5015947;28;20704;-80
2023/09/07 03:36:47;;;;;;;11.35;7.00;;;13.20;99.90;;;;;;5011977;28;20204;-78
2023/09/07 03:39:17;;;;;;;11.73;8.25;;;13.30;99.90;;;;;;5010824;28;20755;-78
2023/09/07 03:41:44;;;;;;;10.80;7.85;;;13.50;99.90;;;;;;5011647;28;20584;-78
2023/09/07 03:44:11;;;;;;;11.07;7.53;;;13.50;99.90;;;;;;5015619;28;20576;-78
2023/09/07 03:46:38;;;;;;;9.68;7.53;;;13.50;99.90;;;;;;5015379;28;20238;-78
2023/09/07 03:49:05;;;;;;;10.60;7.32;;;13.50;99.90;;;;;;5014850;28;20213;-77
2023/09/07 03:51:32;;;;;;;10.05;7.53;;;13.50;99.90;;;;;;5006347;28;20224;-78
2023/09/07 03:53:59;;;;;;;10.23;7.32;;;13.40;99.90;;;;;;5015120;28;20200;-78
2023/09/07 03:56:27;;;;;;;9.13;7.47;;;13.30;99.90;;;;;;5015688;28;20652;-81
2023/09/07 03:58:54;;;;;;;10.57;7.80;;;13.20;99.90;;;;;;5010245;28;20205;-79
2023/09/07 04:01:21;;;;;;;10.55;7.22;;;13.00;99.90;;;;;;5015152;28;20221;-78
2023/09/07 04:03:48;;;;;;;13.00;8.00;;;13.10;99.90;;;;;;5014400;28;20211;-79
2023/09/07 04:06:14;;;;;;;12.47;8.63;;;13.10;99.90;;;;;;5011668;28;20228;-79
2023/09/07 04:08:41;;;;;;;10.40;7.93;;;13.00;99.90;;;;;;5007652;28;20236;-79
2023/09/07 04:11:08;;;;;;;10.60;8.30;;;13.10;99.90;;;;;;5014946;28;20287;-78
2023/09/07 04:13:36;;;;;;;13.20;8.07;;;13.00;99.90;;;;;;5010895;28;20204;-79
2023/09/07 04:16:03;;;;;;;10.63;8.13;;;13.10;99.90;;;;;;5004229;28;20719;-77
2023/09/07 04:18:30;;;;;;;10.80;7.95;;;13.10;99.90;;;;;;5011958;28;20307;-78
2023/09/07 04:21:05;;;;;;;9.93;8.30;;;13.10;99.90;;;;;;5014439;28;20688;-79
2023/09/07 04:23:34;;;;;;;10.95;8.30;;;13.10;99.90;;;;;;5015387;28;20557;-79
2023/09/07 04:26:07;;;;;;;9.93;7.40;;;13.20;99.90;;;;;;5015238;28;20224;-79
2023/09/07 04:28:33;;;;;;;10.07;7.80;;;13.30;99.90;;;;;;5015927;28;20303;-79
2023/09/07 04:31:03;;;;;;;12.55;8.20;;;13.40;99.90;;;;;;5013407;28;20739;-78
2023/09/07 04:33:31;;;;;;;13.87;8.17;;;13.40;99.90;;;;;;5008542;28;20219;-79
2023/09/07 04:35:59;;;;;;;11.43;8.32;;;13.40;99.90;;;;;;5013165;28;20224;-78
2023/09/07 04:38:26;;;;;;;10.65;8.02;;;13.40;99.90;;;;;;5013961;28;20246;-79
2023/09/07 04:40:53;;;;;;;10.07;7.80;;;13.40;99.90;;;;;;5003574;28;20239;-77
2023/09/07 04:43:19;;;;;;;14.93;8.98;;;13.00;99.90;;;;;;5008409;28;20204;-79
2023/09/07 04:45:47;;;;;;;15.35;7.45;;;12.30;99.90;;;;;;5014229;28;20227;-78
2023/09/07 04:48:15;;;;;;;12.45;8.43;;;12.10;99.90;;;;;;5006352;28;20665;-80
2023/09/07 04:50:42;;;;;;;11.17;7.67;;;12.40;99.90;;;;;;5013047;28;20207;-80
2023/09/07 04:53:09;;;;;;;14.50;7.70;;;12.50;99.90;;;;;;5011256;28;20212;-80
2023/09/07 04:55:38;;;;;;;18.20;9.67;;;12.60;99.90;;;;;;5014485;28;20226;-80
2023/09/07 04:58:07;;;;;;;15.63;9.10;;;12.80;99.90;;;;;;5008498;28;20209;-80
2023/09/07 05:00:34;;;;;;;13.45;8.73;;;12.70;99.90;;;;;;5012785;28;20224;-80
2023/09/07 05:03:00;;;;;;;9.77;6.77;;;12.70;99.90;;;;;;5009340;28;20205;-80
2023/09/07 05:05:28;;;;;;;14.13;8.32;;;12.70;99.90;;;;;;5017323;28;20260;-79
2023/09/07 05:07:55;;;;;;;11.17;8.60;;;12.70;99.90;;;;;;5012585;28;20212;-78
2023/09/07 05:10:22;;;;;;;15.13;8.70;;;13.00;99.90;;;;;;5017258;28;20201;-79
2023/09/07 05:12:49;;;;;;;13.35;9.00;;;13.00;99.90;;;;;;5018903;28;20283;-79
2023/09/07 05:15:17;;;;;;;14.87;9.07;;;13.00;99.90;;;;;;5011357;28;20730;-79
2023/09/07 05:17:44;;;;;;;14.80;8.27;;;12.90;99.90;;;;;;5017676;28;20200;-79
2023/09/07 05:20:12;;;;;;;17.35;8.98;;;12.90;99.90;;;;;;5014106;28;20582;-78
2023/09/07 05:22:40;;;;;;;14.00;9.20;;;13.10;99.90;;;;;;5017963;28;20287;-79
2023/09/07 05:25:08;;;;;;;12.95;8.70;;;13.50;99.90;;;;;;5018252;28;20264;-79
2023/09/07 05:27:35;;;;;;;15.73;8.43;;;13.60;99.90;;;;;;5017629;28;20212;-79
2023/09/07 05:30:02;;;;;;;13.98;8.73;;;13.50;99.90;;;;;;5015687;28;20234;-78
2023/09/07 05:32:29;;;;;;;12.55;8.43;;;13.50;99.90;;;;;;5010422;28;20236;-79
2023/09/07 05:34:56;;;;;;;10.80;7.65;;;13.50;99.90;;;;;;5018044;28;20227;-78
2023/09/07 05:37:23;;;;;;;13.40;8.02;;;13.60;99.90;;;;;;5018183;28;20210;-79
2023/09/07 05:39:51;;;;;;;13.48;8.07;;;13.60;99.90;;;;;;5017713;28;20201;-79
2023/09/07 05:42:18;;;;;;;9.93;7.60;;;13.70;99.90;;;;;;5016820;28;20673;-79
2023/09/07 05:44:46;;;;;;;16.13;8.82;;;13.70;99.90;;;;;;5016555;28;20714;-79
2023/09/07 05:47:13;;;;;;;12.95;8.43;;;13.80;99.90;;;;;;5015911;28;20240;-79
2023/09/07 05:49:40;;;;;;;15.38;9.45;;;14.00;99.90;;;;;;5007845;28;20200;-79
2023/09/07 05:52:08;;;;;;;16.10;8.50;;;14.30;99.90;;;;;;5016095;28;20540;-78
2023/09/07 05:54:35;;;;;;;12.35;8.63;;;14.30;99.90;;;;;;5008737;28;20587;-79
2023/09/07 05:57:04;;;;;;;12.18;8.35;;;14.40;99.90;;;;;;5017628;28;20295;-79
2023/09/07 05:59:31;;;;;;;14.60;8.52;;;14.40;99.90;;;;;;5017272;28;20208;-79
2023/09/07 06:01:58;;;;;;;15.73;9.45;;;14.50;99.90;;;;;;5014622;28;20231;-79
2023/09/07 06:04:25;;;;;;;13.63;9.32;;;14.60;99.90;;;;;;5017560;28;20238;-79
2023/09/07 06:06:52;;;;;;;14.13;8.18;;;14.80;99.90;;;;;;5016774;28;20624;-79
2023/09/07 06:09:18;;;;;;;12.07;8.23;;;14.90;99.90;;;;;;5015964;28;20576;-79
2023/09/07 06:11:45;;;;;;;15.63;8.68;;;14.90;99.90;;;;;;5015242;28;20201;-79
2023/09/07 06:14:13;;;;;;;18.80;10.15;;;15.10;99.90;;;;;;5013854;28;20247;-79
2023/09/07 06:16:40;;;;;;;17.15;10.20;;;15.40;99.90;;;;;;5013377;28;20208;-79
2023/09/07 06:19:07;;;;;;;14.93;9.70;;;15.70;99.90;;;;;;5014175;28;20668;-79
2023/09/07 06:21:34;;;;;;;14.00;9.38;;;16.00;99.90;;;;;;5015346;28;20220;-79
2023/09/07 06:24:01;;;;;;;13.65;9.50;;;16.00;99.90;;;;;;5011785;28;20276;-79
2023/09/07 06:26:28;;;;;;;18.83;9.50;;;16.10;99.90;;;;;;5012872;28;20228;-80
2023/09/07 06:28:54;;;;;;;15.90;10.60;;;16.10;99.90;;;;;;5015463;28;20204;-81
2023/09/07 06:31:28;;;;;;;19.42;10.65;;;16.10;99.90;;;;;;5016886;28;20204;-82
2023/09/07 06:33:55;;;;;;;41.47;19.33;;;16.30;99.90;;;;;;5011225;28;20656;-80
2023/09/07 06:36:22;;;;;;;92.90;40.97;;;16.40;99.90;;;;;;5009708;28;20208;-80
2023/09/07 06:38:49;;;;;;;86.97;43.10;;;16.40;99.90;;;;;;5008630;28;20273;-80
2023/09/07 06:41:16;;;;;;;64.80;34.42;;;16.40;99.90;;;;;;5011609;28;20234;-80
2023/09/07 06:43:43;;;;;;;87.53;45.35;;;16.40;99.90;;;;;;5008241;28;20208;-79
2023/09/07 06:46:10;;;;;;;92.78;49.67;;;16.60;99.90;;;;;;5010257;28;20239;-80
2023/09/07 06:48:38;;;;;;;80.25;40.97;;;16.50;99.90;;;;;;5009032;28;20219;-79
2023/09/07 06:51:06;;;;;;;61.22;36.72;;;16.70;99.90;;;;;;5011918;28;20204;-79
2023/09/07 06:53:33;;;;;;;51.33;28.15;;;16.90;99.90;;;;;;5010658;28;20222;-78
2023/09/07 06:56:00;;;;;;;34.20;18.55;;;17.00;99.90;;;;;;5011078;28;20231;-79
2023/09/07 06:58:27;;;;;;;32.63;17.23;;;17.30;99.90;;;;;;5003735;28;20212;-78
2023/09/07 07:00:57;;;;;;;19.50;12.77;;;17.40;99.90;;;;;;5008350;28;20212;-79
2023/09/07 07:03:27;;;;;;;16.95;10.60;;;17.80;99.90;;;;;;5007960;28;20204;-80
2023/09/07 07:05:55;;;;;;;20.52;10.48;;;17.80;99.90;;;;;;5004730;28;20585;-79
2023/09/07 07:08:22;;;;;;;14.73;10.10;;;17.60;99.90;;;;;;5009201;28;20211;-79
2023/09/07 07:10:49;;;;;;;18.15;10.05;;;17.70;99.90;;;;;;5007932;28;20224;-78
2023/09/07 07:13:16;;;;;;;15.85;9.60;;;17.70;99.90;;;;;;5003254;28;20255;-79
2023/09/07 07:15:43;;;;;;;15.02;9.90;;;17.70;99.90;;;;;;5007372;28;20231;-78
2023/09/07 07:18:10;;;;;;;14.18;9.38;;;17.80;99.90;;;;;;5004348;28;20648;-79
2023/09/07 07:20:38;;;;;;;13.38;9.45;;;17.80;99.90;;;;;;5003369;28;20597;-79
2023/09/07 07:23:07;;;;;;;13.40;8.90;;;17.90;99.90;;;;;;5007777;28;20329;-79
2023/09/07 07:25:34;;;;;;;13.38;10.02;;;18.00;99.90;;;;;;5009839;28;20290;-79
2023/09/07 07:28:00;;;;;;;15.43;9.10;;;18.10;99.90;;;;;;5010791;28;20208;-79
2023/09/07 07:30:29;;;;;;;11.90;8.77;;;18.20;99.90;;;;;;5010810;28;20204;-79
2023/09/07 07:32:55;;;;;;;13.32;8.57;;;18.40;99.90;;;;;;5010010;28;20215;-80
2023/09/07 07:35:22;;;;;;;12.88;8.75;;;18.40;99.90;;;;;;5014108;28;20224;-80
2023/09/07 07:37:50;;;;;;;11.40;8.50;;;18.50;99.90;;;;;;5009365;28;20243;-81
2023/09/07 07:40:19;;;;;;;17.85;10.05;;;18.50;99.90;;;;;;5014867;28;20208;-79
2023/09/07 07:42:48;;;;;;;12.95;9.70;;;18.70;99.90;;;;;;5006035;28;20220;-79
2023/09/07 07:45:19;;;;;;;12.15;9.07;;;18.80;99.90;;;;;;5012493;28;20615;-79
2023/09/07 07:47:46;;;;;;;12.63;8.30;;;19.10;99.90;;;;;;5007771;28;20205;-80
2023/09/07 07:50:13;;;;;;;11.20;8.27;;;19.10;99.90;;;;;;5010776;28;20212;-79
2023/09/07 07:52:40;;;;;;;12.18;8.57;;;19.40;99.90;;;;;;5010923;28;20208;-80
2023/09/07 07:55:07;;;;;;;14.15;9.02;;;19.40;99.90;;;;;;5012265;28;20585;-79
2023/09/07 07:57:36;;;;;;;12.93;9.13;;;19.50;99.90;;;;;;5011488;28;20247;-79
2023/09/07 08:00:04;;;;;;;13.93;9.52;;;19.50;99.90;;;;;;5013545;28;20239;-79
2023/09/07 08:02:31;;;;;;;14.93;9.98;;;19.70;99.90;;;;;;5011778;28;20593;-80
2023/09/07 08:04:58;;;;;;;15.43;10.57;;;20.00;99.90;;;;;;5010899;28;20713;-81
2023/09/07 08:07:26;;;;;;;15.48;10.75;;;20.20;99.90;;;;;;5012136;28;20279;-81
2023/09/07 08:09:53;;;;;;;16.83;10.25;;;20.20;99.90;;;;;;5009879;28;20204;-80
2023/09/07 08:12:20;;;;;;;15.13;10.95;;;20.30;99.90;;;;;;5009222;28;20273;-79
2023/09/07 08:14:48;;;;;;;16.17;10.32;;;20.50;99.90;;;;;;5011461;28;20673;-79
2023/09/07 08:17:15;;;;;;;14.23;9.85;;;20.60;99.90;;;;;;5008282;28;20208;-80
2023/09/07 08:19:43;;;;;;;14.98;9.52;;;20.60;99.90;;;;;;5009629;28;20212;-80
2023/09/07 08:22:10;;;;;;;15.48;9.85;;;20.60;99.90;;;;;;5013548;28;20328;-80
2023/09/07 08:24:36;;;;;;;13.68;8.57;;;20.90;99.90;;;;;;5005775;28;20223;-80
2023/09/07 08:27:04;;;;;;;14.45;9.07;;;20.90;99.90;;;;;;5011340;28;20206;-79
2023/09/07 08:29:34;;;;;;;13.15;9.52;;;20.90;99.90;;;;;;5011068;28;20251;-80
2023/09/07 08:32:03;;;;;;;13.65;9.27;;;21.00;99.90;;;;;;5008502;28;20205;-79
2023/09/07 08:34:31;;;;;;;12.90;9.43;;;21.30;99.90;;;;;;5002412;28;20225;-79
2023/09/07 08:36:59;;;;;;;15.27;9.82;;;21.30;99.90;;;;;;5007526;28;20212;-79
2023/09/07 08:39:25;;;;;;;13.80;9.25;;;21.50;99.90;;;;;;5012790;28;20672;-80
2023/09/07 08:41:52;;;;;;;14.38;8.13;;;21.70;99.90;;;;;;5016812;28;20702;-80
2023/09/07 08:44:20;;;;;;;12.68;8.73;;;21.70;99.90;;;;;;5008885;28;20232;-83
2023/09/07 08:46:50;;;;;;;14.05;8.27;;;21.90;99.90;;;;;;5013907;28;20200;-79
2023/09/07 08:49:19;;;;;;;16.25;8.68;;;22.00;99.90;;;;;;5008645;28;20208;-79
2023/09/07 08:51:46;;;;;;;14.50;7.90;;;22.10;99.90;;;;;;5010709;28;20247;-79
2023/09/07 08:54:13;;;;;;;11.65;7.75;;;22.10;99.90;;;;;;5011495;28;20239;-79
2023/09/07 08:56:40;;;;;;;12.60;8.40;;;22.20;99.90;;;;;;5012101;28;20262;-79
2023/09/07 08:59:07;;;;;;;13.57;7.80;;;22.30;99.90;;;;;;5014094;28;20218;-78
2023/09/07 09:01:34;;;;;;;14.85;8.95;;;22.40;99.90;;;;;;5006464;28;20205;-78
2023/09/07 09:04:01;;;;;;;13.98;8.55;;;22.40;99.90;;;;;;5014002;28;20652;-78
2023/09/07 09:06:29;;;;;;;12.93;8.13;;;22.60;99.90;;;;;;5006305;28;20210;-79
2023/09/07 09:08:57;;;;;;;12.25;7.88;;;22.80;99.90;;;;;;5010643;28;20226;-78
2023/09/07 09:11:25;;;;;;;10.40;7.57;;;23.00;99.90;;;;;;5009968;28;20212;-79
2023/09/07 09:13:54;;;;;;;12.48;7.47;;;23.10;99.90;;;;;;5016981;28;20208;-78
2023/09/07 09:16:21;;;;;;;9.55;6.95;;;23.40;99.90;;;;;;5016112;28;20218;-78
2023/09/07 09:18:50;;;;;;;11.88;7.88;;;23.50;99.90;;;;;;5004000;28;20246;-79
2023/09/07 09:21:17;;;;;;;12.10;7.60;;;24.10;99.90;;;;;;5011954;28;20291;-80
2023/09/07 09:23:45;;;;;;;11.18;7.13;;;24.40;99.90;;;;;;5015014;28;20315;-80
2023/09/07 09:26:13;;;;;;;10.15;7.03;;;24.60;99.90;;;;;;5011274;28;20251;-80
2023/09/07 09:28:40;;;;;;;10.75;7.05;;;24.80;99.90;;;;;;5008012;28;20209;-78
2023/09/07 09:31:12;;;;;;;11.85;7.85;;;25.10;99.90;;;;;;5016973;28;20219;-78
2023/09/07 09:33:39;;;;;;;12.23;6.95;;;25.20;99.90;;;;;;5010938;28;20201;-77
2023/09/07 09:36:07;;;;;;;14.40;8.20;;;25.40;99.90;;;;;;5014931;28;20220;-78
2023/09/07 09:38:34;;;;;;;10.13;6.72;;;25.50;99.90;;;;;;5015823;28;20759;-78
2023/09/07 09:41:03;;;;;;;9.60;7.00;;;25.70;99.90;;;;;;5000518;28;20272;-78
2023/09/07 09:43:30;;;;;;;9.63;6.60;;;25.80;99.90;;;;;;5012581;28;20220;-80
2023/09/07 09:45:58;;;;;;;12.85;7.03;;;26.00;99.90;;;;;;5003974;28;20228;-78
2023/09/07 09:48:25;;;;;;;10.75;6.97;;;26.10;99.90;;;;;;5009360;28;20657;-78
2023/09/07 09:50:52;;;;;;;11.82;6.70;;;26.40;99.90;;;;;;5008656;28;20204;-79
2023/09/07 09:53:20;;;;;;;10.68;6.90;;;26.60;99.90;;;;;;5008881;28;20203;-78
2023/09/07 09:55:47;;;;;;;10.52;6.70;;;26.40;99.90;;;;;;5012368;28;20758;-78
2023/09/07 09:58:17;;;;;;;8.98;5.85;;;26.50;99.90;;;;;;5010606;28;20291;-78
2023/09/07 10:00:45;;;;;;;8.80;6.07;;;26.60;99.90;;;;;;5013430;28;20205;-77
2023/09/07 10:03:16;;;;;;;10.18;6.35;;;26.60;99.90;;;;;;5010783;28;20235;-77
2023/09/07 10:05:45;;;;;;;8.70;5.95;;;26.90;99.90;;;;;;5008230;28;20225;-78
2023/09/07 10:08:14;;;;;;;8.45;5.93;;;26.80;99.90;;;;;;5015219;28;20205;-79
2023/09/07 10:10:43;;;;;;;8.68;6.13;;;26.70;99.90;;;;;;5008166;28;20196;-78
2023/09/07 10:13:10;;;;;;;9.27;6.07;;;27.10;99.90;;;;;;5016292;28;20204;-78
2023/09/07 10:15:38;;;;;;;8.27;5.85;;;26.90;99.90;;;;;;5011143;28;20606;-80
2023/09/07 10:18:07;;;;;;;11.63;6.60;;;27.20;99.90;;;;;;5016332;28;20216;-79
2023/09/07 10:20:52;;;;;;;9.32;6.65;;;27.40;99.90;;;;;;5014477;28;20284;-78
2023/09/07 10:23:19;;;;;;;9.23;6.00;;;27.40;99.90;;;;;;5011083;28;20282;-77
2023/09/07 10:25:49;;;;;;;6.15;5.50;;;27.40;99.90;;;;;;5012917;28;20229;-80
2023/09/07 10:28:20;;;;;;;9.40;6.30;;;27.70;99.90;;;;;;5015438;28;20204;-78
2023/09/07 10:30:59;;;;;;;6.63;5.80;;;27.60;99.90;;;;;;5013976;28;20287;-77
2023/09/07 10:33:26;;;;;;;9.73;6.03;;;27.40;99.90;;;;;;5014360;28;20203;-78
2023/09/07 10:35:53;;;;;;;8.77;5.68;;;27.70;99.90;;;;;;5008332;28;20228;-78
2023/09/07 10:38:19;;;;;;;7.50;5.63;;;27.60;99.90;;;;;;5006498;28;20215;-78
2023/09/07 10:40:46;;;;;;;8.68;5.80;;;27.80;99.90;;;;;;5013230;28;20207;-78
2023/09/07 10:43:13;;;;;;;8.05;5.25;;;27.80;99.90;;;;;;5008991;28;20233;-78
2023/09/07 10:45:40;;;;;;;9.18;5.70;;;27.80;99.90;;;;;;5015586;28;20242;-80
2023/09/07 10:48:09;;;;;;;8.27;5.03;;;27.80;99.90;;;;;;5010708;28;20669;-79
2023/09/07 10:50:44;;;;;;;8.57;5.00;;;28.00;99.90;;;;;;5007547;28;20204;-78
2023/09/07 10:53:12;;;;;;;8.25;5.78;;;28.40;99.90;;;;;;5007357;28;20672;-78
2023/09/07 10:55:39;;;;;;;11.48;5.60;;;28.20;99.90;;;;;;5013784;28;20336;-78
2023/09/07 10:58:07;;;;;;;10.52;5.95;;;27.80;99.90;;;;;;5015242;28;20207;-79
2023/09/07 11:00:34;;;;;;;7.20;5.43;;;28.20;99.90;;;;;;5016202;28;20254;-77
2023/09/07 11:03:10;;;;;;;6.50;4.97;;;29.10;99.90;;;;;;5013994;28;20220;-77
2023/09/07 11:05:39;;;;;;;7.10;4.82;;;29.10;99.90;;;;;;5008442;28;20235;-79
2023/09/07 11:08:07;;;;;;;8.73;5.13;;;28.20;99.90;;;;;;5007283;28;20641;-79
2023/09/07 11:10:35;;;;;;;6.22;5.30;;;28.20;99.90;;;;;;5009844;28;20615;-78
2023/09/07 11:13:06;;;;;;;8.88;5.43;;;28.30;99.90;;;;;;5015819;28;20243;-78
2023/09/07 11:15:35;;;;;;;8.05;5.70;;;28.10;99.90;;;;;;5008515;28;20220;-77
2023/09/07 11:18:06;;;;;;;6.40;4.82;;;28.30;99.90;;;;;;5011758;28;20215;-79
2023/09/07 11:20:35;;;;;;;6.18;4.85;;;28.50;99.90;;;;;;5013410;28;20211;-78
2023/09/07 11:23:02;;;;;;;8.70;5.30;;;28.30;99.90;;;;;;5009314;28;20230;-79
2023/09/07 11:25:35;;;;;;;6.22;5.43;;;28.30;99.90;;;;;;5008739;28;20646;-78
2023/09/07 11:28:03;;;;;;;7.35;5.18;;;28.70;99.90;;;;;;5014866;28;20239;-79
2023/09/07 11:30:30;;;;;;;6.32;4.78;;;28.70;99.90;;;;;;5014036;28;20212;-79
2023/09/07 11:33:02;;;;;;;8.73;4.75;;;28.30;99.90;;;;;;5010443;28;20688;-78
2023/09/07 11:35:29;;;;;;;6.60;4.82;;;28.90;99.90;;;;;;5013989;28;20723;-78
2023/09/07 11:37:57;;;;;;;6.38;4.97;;;28.40;99.90;;;;;;5015754;28;20251;-78
2023/09/07 11:40:24;;;;;;;6.70;4.70;;;28.70;99.90;;;;;;5014587;28;20558;-78
2023/09/07 11:42:51;;;;;;;6.32;4.88;;;28.70;99.90;;;;;;5009457;28;20238;-78
2023/09/07 11:45:19;;;;;;;5.07;4.57;;;28.80;99.90;;;;;;5007940;28;20224;-78
2023/09/07 11:47:46;;;;;;;7.65;5.00;;;28.50;99.90;;;;;;5009479;28;20205;-77
2023/09/07 11:50:12;;;;;;;5.35;4.85;;;28.50;99.90;;;;;;5010142;28;20661;-76
2023/09/07 11:52:39;;;;;;;6.43;4.80;;;28.60;99.90;;;;;;5012996;28;20295;-78
2023/09/07 11:55:10;;;;;;;7.25;4.55;;;28.40;99.90;;;;;;5010393;28;20216;-78
2023/09/07 11:57:37;;;;;;;6.20;5.38;;;28.60;99.90;;;;;;5010292;28;20205;-79
2023/09/07 12:00:06;;;;;;;9.05;5.07;;;28.90;99.90;;;;;;5012101;28;20215;-79
2023/09/07 12:02:33;;;;;;;6.30;4.78;;;28.90;99.90;;;;;;4982387;28;20224;-78
2023/09/07 12:05:00;;;;;;;7.00;4.72;;;28.70;99.90;;;;;;5009979;28;20255;-79
2023/09/07 12:07:27;;;;;;;6.43;4.72;;;28.60;94.70;;;;;;5006836;28;20294;-79
2023/09/07 12:09:56;;;;;;;8.25;5.43;;;28.60;99.90;;;;;;5007766;28;20239;-79
2023/09/07 12:12:24;;;;;;;6.53;4.88;;;28.70;91.00;;;;;;5011730;28;20208;-77
2023/09/07 12:14:51;;;;;;;6.45;5.00;;;28.90;94.40;;;;;;5000189;28;20238;-79
2023/09/07 12:17:19;;;;;;;6.32;5.13;;;28.60;83.50;;;;;;5001627;28;20216;-79
2023/09/07 12:19:46;;;;;;;5.60;5.00;;;28.60;84.20;;;;;;5011690;28;20204;-79
2023/09/07 12:22:13;;;;;;;6.88;4.40;;;28.60;83.70;;;;;;5008962;28;20215;-78
2023/09/07 12:24:40;;;;;;;6.60;5.38;;;28.80;84.60;;;;;;5014083;28;20232;-79
2023/09/07 12:27:07;;;;;;;4.95;4.53;;;28.80;74.70;;;;;;5005422;28;20219;-78
2023/09/07 12:29:35;;;;;;;7.25;4.93;;;29.10;93.20;;;;;;5010928;28;20208;-78
2023/09/07 12:32:02;;;;;;;8.63;5.13;;;28.80;79.50;;;;;;5006838;28;20200;-78
2023/09/07 12:34:28;;;;;;;8.43;4.80;;;28.80;68.50;;;;;;5010458;28;20223;-78
2023/09/07 12:36:55;;;;;;;6.30;4.65;;;29.00;90.40;;;;;;5014581;28;20575;-79
2023/09/07 12:39:22;;;;;;;6.40;5.03;;;29.30;87.20;;;;;;5014831;28;20263;-79
2023/09/07 12:41:49;;;;;;;5.95;4.97;;;29.50;52.40;;;;;;5014336;28;20464;-79
2023/09/07 12:44:18;;;;;;;8.70;5.10;;;29.00;49.60;;;;;;5014274;28;20228;-78